createdAt,value
2023-11-24T00:01:12.042Z,62.32
2023-11-24T00:03:40.115Z,62.35
2023-11-24T00:06:09.994Z,62.54
2023-11-24T00:08:38.366Z,62.70
2023-11-24T00:11:06.774Z,62.76
2023-11-24T00:13:35.562Z,62.55
2023-11-24T00:16:04.646Z,62.58
2023-11-24T00:18:33.092Z,62.24
2023-11-24T00:21:07.573Z,62.05
2023-11-24T00:23:36.906Z,62.22
2023-11-24T00:26:07.047Z,62.20
2023-11-24T00:28:35.280Z,62.28
2023-11-24T00:31:06.713Z,62.33
2023-11-24T00:33:36.128Z,62.63
2023-11-24T00:36:04.351Z,62.71
2023-11-24T00:38:32.315Z,62.36
2023-11-24T00:41:01.824Z,62.57
2023-11-24T00:43:29.774Z,62.56
2023-11-24T00:45:57.842Z,62.17
2023-11-24T00:48:25.892Z,62.24
2023-11-24T00:50:55.244Z,62.24
2023-11-24T00:53:23.411Z,62.40
2023-11-24T00:55:51.395Z,62.67
2023-11-24T00:58:20.698Z,62.50
2023-11-24T01:00:48.794Z,62.47
2023-11-24T01:03:17.142Z,62.52
2023-11-24T01:05:45.133Z,62.42
2023-11-24T01:08:13.149Z,62.36
2023-11-24T01:10:41.180Z,62.66
2023-11-24T01:13:09.101Z,62.58
2023-11-24T01:15:38.574Z,62.40
2023-11-24T01:18:08.274Z,62.75
2023-11-24T01:20:36.293Z,62.56
2023-11-24T01:23:05.535Z,62.66
2023-11-24T01:25:32.635Z,62.60
2023-11-24T01:28:00.959Z,62.27
2023-11-24T01:30:28.971Z,62.49
2023-11-24T01:32:59.290Z,62.61
2023-11-24T01:35:27.314Z,62.48
2023-11-24T01:37:55.324Z,62.65
2023-11-24T01:40:23.798Z,62.38
2023-11-24T01:42:52.235Z,62.50
2023-11-24T01:45:20.189Z,62.45
2023-11-24T01:47:48.842Z,62.30
2023-11-24T01:50:18.695Z,62.28
2023-11-24T01:52:46.742Z,62.14
2023-11-24T01:55:15.295Z,62.39
2023-11-24T01:57:43.716Z,62.00
2023-11-24T02:00:14.474Z,62.37
2023-11-24T02:02:43.361Z,61.96
2023-11-24T02:05:12.251Z,62.22
2023-11-24T02:07:41.573Z,62.23
2023-11-24T02:10:10.529Z,61.93
2023-11-24T02:12:38.485Z,62.12
2023-11-24T02:15:08.202Z,62.14
2023-11-24T02:17:36.188Z,61.60
2023-11-24T02:20:07.087Z,61.92
2023-11-24T02:22:40.374Z,61.61
2023-11-24T02:25:09.606Z,61.45
2023-11-24T02:27:37.569Z,61.62
2023-11-24T02:30:06.814Z,61.58
2023-11-24T02:32:35.700Z,61.49
2023-11-24T02:35:04.164Z,61.04
2023-11-24T02:37:32.120Z,61.03
2023-11-24T02:40:01.553Z,61.20
2023-11-24T02:42:29.656Z,60.70
2023-11-24T02:44:57.669Z,60.54
2023-11-24T02:47:25.680Z,60.63
2023-11-24T02:49:53.616Z,60.43
2023-11-24T02:52:22.066Z,60.23
2023-11-24T02:54:50.112Z,59.74
2023-11-24T02:57:19.440Z,59.59
2023-11-24T02:59:47.392Z,59.52
2023-11-24T03:02:15.440Z,58.92
2023-11-24T03:04:43.509Z,59.12
2023-11-24T03:07:12.281Z,58.37
2023-11-24T03:09:40.238Z,58.03
2023-11-24T03:12:09.084Z,57.98
2023-11-24T03:14:39.568Z,58.15
2023-11-24T03:17:07.573Z,57.59
2023-11-24T03:19:35.486Z,57.96
2023-11-24T03:22:03.491Z,57.67
2023-11-24T03:24:31.513Z,57.14
2023-11-24T03:26:59.524Z,57.52
2023-11-24T03:29:27.597Z,56.92
2023-11-24T03:31:57.042Z,56.38
2023-11-24T03:34:25.019Z,56.53
2023-11-24T03:36:53.215Z,56.08
2023-11-24T03:39:22.434Z,56.07
2023-11-24T03:41:50.396Z,55.92
2023-11-24T03:44:18.334Z,56.09
2023-11-24T03:46:46.361Z,56.15
2023-11-24T03:49:15.677Z,55.81
2023-11-24T03:51:43.608Z,56.13
2023-11-24T03:54:11.585Z,55.65
2023-11-24T03:56:39.714Z,55.60
2023-11-24T03:59:07.852Z,55.62
2023-11-24T04:01:36.033Z,55.45
2023-11-24T04:04:04.182Z,55.34
2023-11-24T04:06:33.647Z,55.50
2023-11-24T04:09:01.631Z,55.45
2023-11-24T04:11:29.573Z,55.76
2023-11-24T04:13:58.186Z,55.58
2023-11-24T04:16:26.755Z,55.78
2023-11-24T04:18:54.799Z,55.70
2023-11-24T04:21:22.915Z,55.74
2023-11-24T04:23:52.384Z,55.24
2023-11-24T04:26:20.360Z,55.56
2023-11-24T04:28:48.245Z,55.32
2023-11-24T04:31:16.189Z,55.43
2023-11-24T04:33:44.210Z,55.62
2023-11-24T04:36:13.607Z,55.56
2023-11-24T04:38:41.555Z,55.62
2023-11-24T04:41:11.489Z,55.31
2023-11-24T04:43:40.017Z,55.82
2023-11-24T04:46:09.392Z,55.50
2023-11-24T04:48:39.495Z,55.53
2023-11-24T04:51:07.642Z,55.52
2023-11-24T04:53:36.752Z,55.55
2023-11-24T04:56:06.695Z,55.80
2023-11-24T04:58:36.061Z,55.97
2023-11-24T05:01:04.223Z,55.68
2023-11-24T05:03:32.562Z,55.97
2023-11-24T05:06:00.958Z,55.93
2023-11-24T05:08:28.910Z,55.75
2023-11-24T05:10:56.845Z,55.41
2023-11-24T05:13:24.805Z,55.65
2023-11-24T05:15:54.172Z,55.46
2023-11-24T05:18:22.193Z,55.65
2023-11-24T05:20:50.162Z,55.48
2023-11-24T05:23:18.104Z,55.29
2023-11-24T05:25:46.110Z,55.67
2023-11-24T05:28:14.039Z,55.66
2023-11-24T05:30:42.139Z,55.18
2023-11-24T05:33:11.511Z,55.38
2023-11-24T05:35:39.469Z,55.30
2023-11-24T05:38:08.239Z,55.05
2023-11-24T05:40:36.103Z,54.86
2023-11-24T05:43:04.151Z,54.37
2023-11-24T05:45:35.665Z,54.21
2023-11-24T05:48:03.861Z,54.08
2023-11-24T05:50:33.306Z,54.30
2023-11-24T05:53:01.278Z,53.97
2023-11-24T05:55:29.285Z,53.99
2023-11-24T05:57:57.831Z,53.93
2023-11-24T06:00:26.811Z,53.87
2023-11-24T06:02:54.799Z,53.56
2023-11-24T06:05:22.818Z,53.56
2023-11-24T06:07:54.306Z,53.84
2023-11-24T06:10:23.816Z,53.60
2023-11-24T06:12:51.830Z,53.34
2023-11-24T06:15:19.808Z,53.28
2023-11-24T06:17:49.703Z,52.96
2023-11-24T06:20:17.782Z,53.01
2023-11-24T06:22:45.789Z,52.66
2023-11-24T06:25:16.514Z,52.36
2023-11-24T06:27:45.221Z,52.46
2023-11-24T06:30:13.669Z,52.41
2023-11-24T06:32:41.713Z,52.11
2023-11-24T06:35:11.397Z,52.30
2023-11-24T06:37:39.634Z,52.16
2023-11-24T06:40:12.747Z,52.38
2023-11-24T06:42:42.504Z,52.21
2023-11-24T06:45:13.756Z,52.23
2023-11-24T06:47:42.198Z,52.27
2023-11-24T06:50:11.112Z,51.74
2023-11-24T06:52:39.076Z,51.40
2023-11-24T06:55:08.390Z,51.19
2023-11-24T06:57:36.658Z,51.29
2023-11-24T07:00:08.989Z,50.86
2023-11-24T07:02:37.671Z,50.89
2023-11-24T07:05:06.520Z,50.87
2023-11-24T07:07:34.449Z,50.75
2023-11-24T07:10:02.433Z,50.57
2023-11-24T07:12:30.621Z,50.38
2023-11-24T07:15:00.404Z,50.19
2023-11-24T07:17:32.648Z,50.56
2023-11-24T07:20:00.699Z,50.17
2023-11-24T07:22:28.688Z,50.46
2023-11-24T07:24:56.983Z,50.50
2023-11-24T07:27:25.088Z,50.54
2023-11-24T07:29:53.084Z,50.35
2023-11-24T07:32:26.116Z,50.50
2023-11-24T07:34:55.542Z,50.28
2023-11-24T07:37:23.569Z,50.01
2023-11-24T07:39:51.583Z,50.02
2023-11-24T07:42:19.652Z,50.08
2023-11-24T07:44:47.674Z,49.95
2023-11-24T07:47:16.143Z,49.94
2023-11-24T07:49:44.069Z,49.79
2023-11-24T07:52:13.798Z,49.68
2023-11-24T07:54:41.946Z,49.75
2023-11-24T07:57:10.121Z,49.35
2023-11-24T07:59:38.769Z,49.34
2023-11-24T08:02:07.339Z,49.47
2023-11-24T08:04:35.364Z,49.52
2023-11-24T08:07:03.508Z,49.58
2023-11-24T08:09:33.695Z,49.64
2023-11-24T08:12:01.642Z,49.60
2023-11-24T08:14:30.632Z,49.68
2023-11-24T08:16:58.696Z,49.84
2023-11-24T08:19:27.310Z,49.37
2023-11-24T08:21:55.257Z,49.78
2023-11-24T08:24:23.183Z,49.54
2023-11-24T08:26:52.794Z,49.61
2023-11-24T08:29:20.712Z,49.82
2023-11-24T08:31:49.744Z,49.75
2023-11-24T08:34:19.265Z,49.65
2023-11-24T08:36:48.114Z,49.80
2023-11-24T08:39:16.752Z,49.82
2023-11-24T08:41:49.549Z,49.82
2023-11-24T08:44:25.375Z,49.93
2023-11-24T08:46:53.688Z,49.92
2023-11-24T08:49:23.367Z,49.85
2023-11-24T08:51:51.421Z,49.77
2023-11-24T08:54:19.408Z,49.67
2023-11-24T08:56:47.357Z,49.64
2023-11-24T08:59:15.341Z,49.11
2023-11-24T09:01:44.672Z,49.41
2023-11-24T09:04:14.327Z,49.12
2023-11-24T09:06:42.943Z,49.08
2023-11-24T09:09:13.511Z,48.91
2023-11-24T09:11:41.544Z,48.74
2023-11-24T09:14:10.836Z,48.85
2023-11-24T09:16:40.403Z,48.79
2023-11-24T09:19:09.959Z,48.67
2023-11-24T09:21:37.988Z,48.52
2023-11-24T09:24:07.161Z,48.71
2023-11-24T09:26:35.077Z,48.89
2023-11-24T09:29:03.838Z,48.90
2023-11-24T09:31:35.692Z,48.47
2023-11-24T09:34:04.720Z,48.53
2023-11-24T09:36:34.227Z,48.20
2023-11-24T09:39:02.204Z,48.30
2023-11-24T09:41:30.297Z,48.29
2023-11-24T09:44:00.942Z,48.06
2023-11-24T09:46:33.469Z,48.18
2023-11-24T09:49:07.594Z,47.77
2023-11-24T09:51:38.136Z,47.71
2023-11-24T09:54:07.078Z,47.08
2023-11-24T09:56:35.845Z,47.26
2023-11-24T09:59:09.761Z,47.28
2023-11-24T10:01:38.624Z,47.32
2023-11-24T10:04:07.903Z,47.13
2023-11-24T10:06:40.293Z,46.99
2023-11-24T10:09:11.708Z,46.80
2023-11-24T10:11:40.694Z,46.59
2023-11-24T10:14:12.193Z,46.52
2023-11-24T10:16:42.415Z,46.16
2023-11-24T10:19:18.501Z,46.17
2023-11-24T10:21:50.414Z,46.52
2023-11-24T10:24:18.430Z,46.34
2023-11-24T10:26:47.237Z,45.92
2023-11-24T10:29:16.509Z,45.66
2023-11-24T10:31:44.982Z,45.30
2023-11-24T10:34:13.000Z,45.64
2023-11-24T10:36:41.870Z,46.04
2023-11-24T10:39:13.087Z,45.54
2023-11-24T10:41:44.325Z,45.42
2023-11-24T10:44:12.510Z,44.82
2023-11-24T10:46:42.874Z,45.17
2023-11-24T10:49:13.914Z,45.21
2023-11-24T10:51:45.825Z,44.99
2023-11-24T10:54:22.835Z,44.89
2023-11-24T10:56:51.598Z,44.93
2023-11-24T10:59:20.803Z,44.98
2023-11-24T11:01:49.076Z,45.10
2023-11-24T11:04:17.171Z,44.89
2023-11-24T11:06:49.816Z,45.02
2023-11-24T11:09:29.921Z,45.08
2023-11-24T11:12:38.638Z,45.02
2023-11-24T11:15:10.751Z,44.99
2023-11-24T11:17:39.625Z,44.87
2023-11-24T11:20:13.693Z,44.74
2023-11-24T11:22:43.886Z,44.58
2023-11-24T11:25:42.579Z,44.99
2023-11-24T11:28:47.712Z,44.79
2023-11-24T11:31:39.053Z,44.78
2023-11-24T11:34:18.017Z,45.12
2023-11-24T11:36:55.884Z,45.04
2023-11-24T11:39:27.833Z,44.94
2023-11-24T11:41:58.318Z,44.95
2023-11-24T11:44:34.679Z,45.22
2023-11-24T11:47:16.749Z,45.12
2023-11-24T11:49:44.956Z,45.01
2023-11-24T11:52:13.483Z,44.78
2023-11-24T11:54:41.991Z,45.36
2023-11-24T11:57:12.302Z,46.71
2023-11-24T11:59:41.204Z,48.40
2023-11-24T12:02:15.897Z,47.91
2023-11-24T12:04:46.786Z,45.40
2023-11-24T12:07:16.417Z,45.45
2023-11-24T12:09:44.939Z,45.28
2023-11-24T12:12:14.390Z,43.57
2023-11-24T12:14:43.950Z,42.14
2023-11-24T12:17:13.464Z,42.03
2023-11-24T12:19:44.348Z,41.87
2023-11-24T12:22:12.661Z,42.21
2023-11-24T12:24:41.347Z,42.27
2023-11-24T12:27:09.963Z,42.49
2023-11-24T12:29:42.512Z,43.28
2023-11-24T12:32:11.748Z,43.29
2023-11-24T12:34:42.988Z,43.79
2023-11-24T12:37:11.054Z,44.29
2023-11-24T12:39:41.801Z,44.54
2023-11-24T12:42:12.064Z,44.43
2023-11-24T12:44:42.823Z,44.73
2023-11-24T12:47:15.160Z,44.51
2023-11-24T12:50:07.806Z,44.20
2023-11-24T12:52:36.496Z,44.38
2023-11-24T12:55:08.472Z,44.02
2023-11-24T12:57:36.750Z,44.02
2023-11-24T13:00:11.083Z,43.58
2023-11-24T13:02:40.660Z,43.54
2023-11-24T13:05:09.671Z,43.33
2023-11-24T13:07:37.997Z,43.48
2023-11-24T13:10:11.731Z,43.54
2023-11-24T13:12:40.444Z,43.64
2023-11-24T13:15:10.830Z,43.33
2023-11-24T13:17:39.522Z,43.08
2023-11-24T13:20:11.617Z,43.31
2023-11-24T13:22:39.885Z,43.78
2023-11-24T13:25:09.718Z,43.62
2023-11-24T13:27:37.783Z,43.23
2023-11-24T13:30:10.514Z,42.42
2023-11-24T13:32:40.204Z,42.38
2023-11-24T13:35:11.902Z,42.74
2023-11-24T13:37:40.430Z,43.01
2023-11-24T13:40:10.775Z,43.54
2023-11-24T13:42:38.872Z,43.50
2023-11-24T13:45:08.575Z,43.44
2023-11-24T13:47:37.133Z,43.81
2023-11-24T13:50:08.806Z,43.97
2023-11-24T13:52:36.859Z,46.25
2023-11-24T13:55:07.275Z,45.61
2023-11-24T13:57:36.845Z,45.03
2023-11-24T14:00:08.265Z,44.61
2023-11-24T14:02:37.481Z,42.77
2023-11-24T14:05:09.911Z,41.11
2023-11-24T14:07:37.885Z,39.87
2023-11-24T14:10:07.473Z,39.35
2023-11-24T14:12:36.357Z,39.43
2023-11-24T14:15:05.815Z,39.65
2023-11-24T14:17:36.872Z,39.99
2023-11-24T14:20:08.210Z,40.25
2023-11-24T14:22:37.511Z,41.07
2023-11-24T14:25:07.773Z,40.96
2023-11-24T14:27:36.274Z,41.57
2023-11-24T14:30:06.753Z,41.42
2023-11-24T14:32:34.826Z,41.16
2023-11-24T14:35:04.301Z,41.61
2023-11-24T14:37:33.721Z,41.76
2023-11-24T14:40:02.656Z,41.73
2023-11-24T14:42:30.850Z,41.65
2023-11-24T14:44:58.832Z,41.67
2023-11-24T14:47:28.054Z,41.86
2023-11-24T14:49:56.143Z,41.96
2023-11-24T14:52:24.785Z,42.08
2023-11-24T14:54:56.652Z,42.01
2023-11-24T14:57:24.712Z,42.26
2023-11-24T14:59:56.026Z,42.23
2023-11-24T15:02:26.914Z,42.30
2023-11-24T15:04:55.081Z,42.10
2023-11-24T15:07:24.694Z,42.00
2023-11-24T15:09:54.110Z,41.94
2023-11-24T15:12:27.838Z,42.58
2023-11-24T15:14:59.956Z,42.58
2023-11-24T15:17:28.043Z,42.63
2023-11-24T15:19:56.780Z,42.64
2023-11-24T15:22:28.339Z,43.01
2023-11-24T15:24:59.651Z,42.86
2023-11-24T15:27:28.621Z,42.58
2023-11-24T15:29:56.822Z,42.52
2023-11-24T15:32:25.129Z,42.82
2023-11-24T15:34:54.424Z,42.86
2023-11-24T15:37:23.902Z,42.71
2023-11-24T15:39:58.066Z,42.98
2023-11-24T15:42:30.369Z,42.88
2023-11-24T15:45:00.197Z,43.08
2023-11-24T15:47:29.634Z,43.06
2023-11-24T15:49:59.505Z,43.20
2023-11-24T15:52:28.535Z,43.22
2023-11-24T15:54:58.753Z,43.25
2023-11-24T15:57:31.197Z,43.41
2023-11-24T16:00:02.716Z,43.42
2023-11-24T16:02:34.083Z,43.57
2023-11-24T16:05:05.778Z,43.62
2023-11-24T16:07:35.688Z,44.03
2023-11-24T16:10:15.161Z,44.21
2023-11-24T16:12:45.976Z,44.22
2023-11-24T16:15:17.326Z,44.59
2023-11-24T16:17:46.985Z,44.60
2023-11-24T16:20:15.264Z,44.74
2023-11-24T16:22:43.314Z,44.80
2023-11-24T16:25:11.347Z,44.84
2023-11-24T16:27:42.095Z,44.72
2023-11-24T16:30:12.310Z,44.81
2023-11-24T16:32:40.681Z,45.31
2023-11-24T16:35:10.292Z,45.42
2023-11-24T16:37:38.447Z,45.60
2023-11-24T16:40:09.384Z,45.61
2023-11-24T16:42:37.491Z,45.91
2023-11-24T16:45:07.503Z,46.19
2023-11-24T16:47:37.706Z,46.24
2023-11-24T16:50:06.590Z,46.23
2023-11-24T16:52:34.693Z,46.47
2023-11-24T16:55:04.120Z,46.32
2023-11-24T16:57:34.740Z,46.48
2023-11-24T17:00:05.196Z,46.60
2023-11-24T17:02:33.511Z,46.65
2023-11-24T17:05:04.376Z,46.57
2023-11-24T17:07:32.487Z,46.66
2023-11-24T17:10:00.596Z,46.73
2023-11-24T17:12:31.202Z,46.94
2023-11-24T17:14:59.326Z,46.68
2023-11-24T17:17:27.552Z,46.78
2023-11-24T17:19:55.764Z,46.57
2023-11-24T17:22:25.220Z,46.82
2023-11-24T17:24:53.298Z,46.74
2023-11-24T17:27:21.373Z,46.65
2023-11-24T17:29:49.949Z,46.59
2023-11-24T17:32:18.849Z,46.50
2023-11-24T17:34:47.468Z,46.73
2023-11-24T17:37:16.819Z,46.46
2023-11-24T17:39:46.873Z,46.50
2023-11-24T17:42:14.893Z,46.56
2023-11-24T17:44:42.923Z,46.44
2023-11-24T17:47:10.993Z,46.46
2023-11-24T17:49:39.044Z,46.45
2023-11-24T17:52:08.588Z,46.30
2023-11-24T17:54:36.700Z,46.37
2023-11-24T17:57:06.496Z,46.18
2023-11-24T17:59:34.511Z,46.23
2023-11-24T18:02:03.147Z,46.17
2023-11-24T18:04:31.350Z,46.23
2023-11-24T18:07:00.433Z,46.23
2023-11-24T18:09:29.303Z,46.15
2023-11-24T18:11:57.777Z,46.30
2023-11-24T18:14:27.178Z,46.12
2023-11-24T18:16:55.239Z,46.39
2023-11-24T18:19:23.731Z,46.39
2023-11-24T18:21:52.512Z,46.39
2023-11-24T18:24:21.054Z,46.21
2023-11-24T18:26:49.262Z,46.05
2023-11-24T18:29:18.224Z,46.33
2023-11-24T18:31:48.990Z,46.25
2023-11-24T18:34:17.296Z,46.19
2023-11-24T18:36:45.281Z,46.26
2023-11-24T18:39:13.725Z,46.38
2023-11-24T18:41:42.098Z,46.13
2023-11-24T18:44:10.255Z,46.28
2023-11-24T18:46:38.321Z,46.32
2023-11-24T18:49:08.063Z,46.45
2023-11-24T18:51:36.152Z,46.42
2023-11-24T18:54:04.240Z,46.47
2023-11-24T18:56:32.225Z,46.60
2023-11-24T18:59:00.453Z,46.53
2023-11-24T19:01:28.573Z,46.56
2023-11-24T19:03:57.360Z,46.71
2023-11-24T19:06:27.375Z,46.55
2023-11-24T19:08:56.642Z,46.72
2023-11-24T19:11:25.310Z,46.73
2023-11-24T19:13:53.398Z,46.69
2023-11-24T19:16:21.696Z,46.88
2023-11-24T19:18:49.791Z,46.85
2023-11-24T19:21:18.807Z,47.00
2023-11-24T19:23:49.562Z,47.11
2023-11-24T19:26:18.154Z,47.17
2023-11-24T19:28:59.076Z,47.11
2023-11-24T19:31:34.093Z,47.49
2023-11-24T19:34:03.437Z,47.52
2023-11-24T19:36:31.508Z,47.58
2023-11-24T19:39:01.210Z,47.79
2023-11-24T19:41:29.943Z,47.84
2023-11-24T19:43:58.009Z,48.02
2023-11-24T19:46:26.191Z,48.02
2023-11-24T19:48:54.296Z,48.08
2023-11-24T19:51:22.343Z,48.06
2023-11-24T19:53:52.584Z,48.10
2023-11-24T19:56:23.442Z,48.25
2023-11-24T19:58:51.952Z,48.30
2023-11-24T20:01:23.258Z,48.31
2023-11-24T20:03:51.566Z,48.44
2023-11-24T20:06:20.167Z,48.42
2023-11-24T20:08:48.347Z,48.40
2023-11-24T20:11:17.501Z,48.50
2023-11-24T20:13:47.096Z,48.52
2023-11-24T20:16:15.369Z,48.67
2023-11-24T20:18:45.649Z,48.71
2023-11-24T20:21:14.032Z,48.87
2023-11-24T20:23:42.041Z,48.90
2023-11-24T20:26:10.099Z,48.86
2023-11-24T20:28:38.218Z,48.90
2023-11-24T20:31:08.495Z,48.98
2023-11-24T20:33:36.581Z,49.17
2023-11-24T20:36:04.807Z,49.15
2023-11-24T20:38:33.310Z,49.41
2023-11-24T20:41:01.387Z,49.43
2023-11-24T20:43:30.414Z,49.52
2023-11-24T20:45:58.597Z,49.64
2023-11-24T20:48:28.057Z,49.62
2023-11-24T20:50:56.306Z,49.47
2023-11-24T20:53:24.306Z,49.67
2023-11-24T20:55:52.346Z,49.47
2023-11-24T20:58:20.370Z,49.58
2023-11-24T21:00:48.616Z,49.82
2023-11-24T21:03:16.677Z,49.80
2023-11-24T21:05:46.119Z,49.88
2023-11-24T21:08:14.068Z,49.85
2023-11-24T21:10:42.201Z,49.75
2023-11-24T21:13:10.325Z,49.80
2023-11-24T21:15:38.430Z,50.01
2023-11-24T21:18:07.049Z,50.16
2023-11-24T21:20:35.191Z,50.25
2023-11-24T21:23:04.750Z,50.39
2023-11-24T21:25:32.938Z,50.24
2023-11-24T21:28:01.346Z,50.21
2023-11-24T21:30:29.396Z,50.25
2023-11-24T21:32:57.611Z,50.23
2023-11-24T21:35:25.704Z,50.38
2023-11-24T21:37:53.740Z,50.53
2023-11-24T21:40:23.538Z,50.44
2023-11-24T21:42:51.662Z,50.56
2023-11-24T21:45:19.830Z,50.67
2023-11-24T21:47:48.292Z,50.78
2023-11-24T21:50:18.316Z,50.88
2023-11-24T21:52:46.624Z,51.01
2023-11-24T21:55:14.922Z,51.03
2023-11-24T21:57:44.568Z,50.99
2023-11-24T22:00:18.396Z,51.11
2023-11-24T22:02:46.882Z,51.05
2023-11-24T22:05:15.495Z,51.34
2023-11-24T22:07:44.504Z,51.24
2023-11-24T22:10:12.800Z,51.45
2023-11-24T22:12:41.896Z,51.21
2023-11-24T22:15:11.994Z,51.33
2023-11-24T22:17:40.052Z,51.22
2023-11-24T22:20:12.004Z,51.38
2023-11-24T22:22:40.545Z,51.44
2023-11-24T22:25:09.606Z,51.50
2023-11-24T22:27:38.161Z,51.64
2023-11-24T22:30:07.864Z,51.57
2023-11-24T22:32:37.715Z,51.50
2023-11-24T22:35:06.426Z,51.45
2023-11-24T22:37:35.654Z,51.42
2023-11-24T22:40:06.390Z,51.46
2023-11-24T22:42:35.448Z,51.47
2023-11-24T22:45:06.897Z,51.47
2023-11-24T22:47:39.280Z,51.36
2023-11-24T22:50:11.226Z,51.27
2023-11-24T22:52:39.702Z,51.28
2023-11-24T22:55:08.223Z,51.64
2023-11-24T22:57:36.607Z,51.40
2023-11-24T23:00:07.110Z,51.57
2023-11-24T23:02:35.250Z,51.37
2023-11-24T23:05:03.325Z,51.62
2023-11-24T23:07:33.133Z,51.79
2023-11-24T23:10:02.049Z,51.86
2023-11-24T23:12:30.107Z,51.54
2023-11-24T23:14:58.122Z,51.90
2023-11-24T23:17:26.214Z,52.07
2023-11-24T23:19:54.360Z,52.12
2023-11-24T23:22:31.229Z,51.88
2023-11-24T23:25:07.569Z,52.00
2023-11-24T23:27:38.799Z,52.06
2023-11-24T23:30:15.013Z,51.95
2023-11-24T23:32:45.166Z,51.85
2023-11-24T23:35:13.542Z,51.97
2023-11-24T23:37:45.206Z,51.98
2023-11-24T23:40:15.956Z,52.15
2023-11-24T23:42:46.234Z,52.13
2023-11-24T23:45:15.190Z,52.21
2023-11-24T23:47:43.878Z,52.11
2023-11-24T23:50:12.464Z,52.08
2023-11-24T23:52:40.832Z,52.03
2023-11-24T23:55:09.569Z,51.96
2023-11-24T23:57:39.047Z,51.95
